sensor_id;sensor_type;location;lat;lon;timestamp;temperature;humidity
7366;DHT22;3723;52.220;8.792;2024-01-10T00:01:00;-7.60;99.90
7366;DHT22;3723;52.220;8.792;2024-01-10T00:03:28;-7.60;99.90
7366;DHT22;3723;52.220;8.792;2024-01-10T00:05:56;-7.70;99.90
7366;DHT22;3723;52.220;8.792;2024-01-10T00:08:23;-7.80;99.90
7366;DHT22;3723;52.220;8.792;2024-01-10T00:10:51;-7.80;99.90
7366;DHT22;3723;52.220;8.792;2024-01-10T00:13:21;-7.90;99.90
7366;DHT22;3723;52.220;8.792;2024-01-10T00:15:48;-7.90;99.90
7366;DHT22;3723;52.220;8.792;2024-01-10T00:18:15;-8.00;99.90
7366;DHT22;3723;52.220;8.792;2024-01-10T00:20:42;-8.00;99.90
7366;DHT22;3723;52.220;8.792;2024-01-10T00:23:08;-8.10;99.90
7366;DHT22;3723;52.220;8.792;2024-01-10T00:25:35;-8.20;99.90
7366;DHT22;3723;52.220;8.792;2024-01-10T00:28:02;-8.20;99.90
7366;DHT22;3723;52.220;8.792;2024-01-10T00:30:31;-8.30;99.90
7366;DHT22;3723;52.220;8.792;2024-01-10T00:32:58;-8.30;99.90
7366;DHT22;3723;52.220;8.792;2024-01-10T00:35:25;-8.30;99.90
7366;DHT22;3723;52.220;8.792;2024-01-10T00:37:51;-8.30;99.90
7366;DHT22;3723;52.220;8.792;2024-01-10T00:40:18;-8.30;99.90
7366;DHT22;3723;52.220;8.792;2024-01-10T00:42:45;-8.40;99.90
7366;DHT22;3723;52.220;8.792;2024-01-10T00:45:12;-8.60;99.90
7366;DHT22;3723;52.220;8.792;2024-01-10T00:47:40;-8.80;99.90
7366;DHT22;3723;52.220;8.792;2024-01-10T00:50:08;-8.90;99.90
7366;DHT22;3723;52.220;8.792;2024-01-10T00:52:36;-9.00;99.90
7366;DHT22;3723;52.220;8.792;2024-01-10T00:55:03;-9.10;99.90
7366;DHT22;3723;52.220;8.792;2024-01-10T00:57:30;-9.30;99.90
7366;DHT22;3723;52.220;8.792;2024-01-10T00:59:57;-9.50;99.90
7366;DHT22;3723;52.220;8.792;2024-01-10T01:02:24;-9.60;99.90
7366;DHT22;3723;52.220;8.792;2024-01-10T01:04:52;-9.70;99.90
7366;DHT22;3723;52.220;8.792;2024-01-10T01:07:19;-9.80;99.90
7366;DHT22;3723;52.220;8.792;2024-01-10T01:09:46;-9.90;99.90
7366;DHT22;3723;52.220;8.792;2024-01-10T01:12:13;-10.00;99.90
7366;DHT22;3723;52.220;8.792;2024-01-10T01:14:39;-10.00;99.90
7366;DHT22;3723;52.220;8.792;2024-01-10T01:17:06;-10.00;99.90
7366;DHT22;3723;52.220;8.792;2024-01-10T01:19:33;-9.90;99.90
7366;DHT22;3723;52.220;8.792;2024-01-10T01:22:01;-10.00;99.90
7366;DHT22;3723;52.220;8.792;2024-01-10T01:24:28;-10.00;99.90
7366;DHT22;3723;52.220;8.792;2024-01-10T01:26:55;-10.10;99.90
7366;DHT22;3723;52.220;8.792;2024-01-10T01:29:22;-10.20;99.90
7366;DHT22;3723;52.220;8.792;2024-01-10T01:31:49;-10.20;99.90
7366;DHT22;3723;52.220;8.792;2024-01-10T01:34:17;-10.30;99.90
7366;DHT22;3723;52.220;8.792;2024-01-10T01:36:44;-10.30;99.90
7366;DHT22;3723;52.220;8.792;2024-01-10T01:39:12;-10.30;99.90
7366;DHT22;3723;52.220;8.792;2024-01-10T01:41:39;-10.30;99.90
7366;DHT22;3723;52.220;8.792;2024-01-10T01:44:07;-10.20;99.90
7366;DHT22;3723;52.220;8.792;2024-01-10T01:46:35;-10.00;99.90
7366;DHT22;3723;52.220;8.792;2024-01-10T01:49:02;-9.60;99.90
7366;DHT22;3723;52.220;8.792;2024-01-10T01:51:31;-9.40;99.90
7366;DHT22;3723;52.220;8.792;2024-01-10T01:53:58;-9.10;99.90
7366;DHT22;3723;52.220;8.792;2024-01-10T01:56:27;-8.90;99.90
7366;DHT22;3723;52.220;8.792;2024-01-10T01:58:54;-8.80;99.90
7366;DHT22;3723;52.220;8.792;2024-01-10T02:01:21;-8.70;99.90
7366;DHT22;3723;52.220;8.792;2024-01-10T02:03:48;-8.60;99.90
7366;DHT22;3723;52.220;8.792;2024-01-10T02:06:15;-8.50;99.90
7366;DHT22;3723;52.220;8.792;2024-01-10T02:08:42;-8.50;99.90
7366;DHT22;3723;52.220;8.792;2024-01-10T02:11:09;-8.50;99.90
7366;DHT22;3723;52.220;8.792;2024-01-10T02:13:37;-8.30;99.90
7366;DHT22;3723;52.220;8.792;2024-01-10T02:16:04;-7.90;99.90
7366;DHT22;3723;52.220;8.792;2024-01-10T02:18:31;-7.80;99.90
7366;DHT22;3723;52.220;8.792;2024-01-10T02:21:00;-7.70;99.90
7366;DHT22;3723;52.220;8.792;2024-01-10T02:23:27;-7.60;99.90
7366;DHT22;3723;52.220;8.792;2024-01-10T02:25:55;-7.50;99.90
7366;DHT22;3723;52.220;8.792;2024-01-10T02:28:22;-7.40;99.90
7366;DHT22;3723;52.220;8.792;2024-01-10T02:30:50;-7.40;99.90
7366;DHT22;3723;52.220;8.792;2024-01-10T02:33:17;-7.40;99.90
7366;DHT22;3723;52.220;8.792;2024-01-10T02:35:44;-7.40;99.90
7366;DHT22;3723;52.220;8.792;2024-01-10T02:38:11;-7.40;99.90
7366;DHT22;3723;52.220;8.792;2024-01-10T02:40:37;-7.40;99.90
7366;DHT22;3723;52.220;8.792;2024-01-10T02:43:06;-7.50;99.90
7366;DHT22;3723;52.220;8.792;2024-01-10T02:45:33;-7.60;99.90
7366;DHT22;3723;52.220;8.792;2024-01-10T02:48:01;-7.70;99.90
7366;DHT22;3723;52.220;8.792;2024-01-10T02:50:29;-7.70;99.90
7366;DHT22;3723;52.220;8.792;2024-01-10T02:52:56;-7.80;99.90
7366;DHT22;3723;52.220;8.792;2024-01-10T02:55:22;-7.80;99.90
7366;DHT22;3723;52.220;8.792;2024-01-10T02:57:49;-7.80;99.90
7366;DHT22;3723;52.220;8.792;2024-01-10T03:00:18;-7.70;99.90
7366;DHT22;3723;52.220;8.792;2024-01-10T03:02:45;-7.70;99.90
7366;DHT22;3723;52.220;8.792;2024-01-10T03:05:11;-7.60;99.90
7366;DHT22;3723;52.220;8.792;2024-01-10T03:07:38;-7.60;99.90
7366;DHT22;3723;52.220;8.792;2024-01-10T03:10:06;-7.60;99.90
7366;DHT22;3723;52.220;8.792;2024-01-10T03:12:33;-7.60;99.90
7366;DHT22;3723;52.220;8.792;2024-01-10T03:15:03;-7.60;99.90
7366;DHT22;3723;52.220;8.792;2024-01-10T03:17:32;-7.60;99.90
7366;DHT22;3723;52.220;8.792;2024-01-10T03:19:59;-7.70;99.90
7366;DHT22;3723;52.220;8.792;2024-01-10T03:22:26;-7.80;99.90
7366;DHT22;3723;52.220;8.792;2024-01-10T03:24:52;-7.90;99.90
7366;DHT22;3723;52.220;8.792;2024-01-10T03:27:20;-7.90;99.90
7366;DHT22;3723;52.220;8.792;2024-01-10T03:29:47;-7.90;99.90
7366;DHT22;3723;52.220;8.792;2024-01-10T03:32:14;-8.10;99.90
7366;DHT22;3723;52.220;8.792;2024-01-10T03:34:42;-8.00;99.90
7366;DHT22;3723;52.220;8.792;2024-01-10T03:37:09;-8.10;99.90
7366;DHT22;3723;52.220;8.792;2024-01-10T03:39:36;-8.10;99.90
7366;DHT22;3723;52.220;8.792;2024-01-10T03:42:03;-8.30;99.90
7366;DHT22;3723;52.220;8.792;2024-01-10T03:44:30;-8.40;99.90
7366;DHT22;3723;52.220;8.792;2024-01-10T03:46:57;-8.50;99.90
7366;DHT22;3723;52.220;8.792;2024-01-10T03:49:23;-8.60;99.90
7366;DHT22;3723;52.220;8.792;2024-01-10T03:51:52;-8.80;99.90
7366;DHT22;3723;52.220;8.792;2024-01-10T03:54:18;-8.80;99.90
7366;DHT22;3723;52.220;8.792;2024-01-10T03:56:45;-8.80;99.90
7366;DHT22;3723;52.220;8.792;2024-01-10T03:59:12;-8.60;99.90
7366;DHT22;3723;52.220;8.792;2024-01-10T04:01:39;-8.50;99.90
7366;DHT22;3723;52.220;8.792;2024-01-10T04:04:06;-8.50;99.90
7366;DHT22;3723;52.220;8.792;2024-01-10T04:06:33;-8.50;99.90
7366;DHT22;3723;52.220;8.792;2024-01-10T04:09:01;-8.50;99.90
7366;DHT22;3723;52.220;8.792;2024-01-10T04:11:28;-8.50;99.90
7366;DHT22;3723;52.220;8.792;2024-01-10T04:13:55;-8.50;99.90
7366;DHT22;3723;52.220;8.792;2024-01-10T04:16:22;-8.40;99.90
7366;DHT22;3723;52.220;8.792;2024-01-10T04:18:49;-8.40;99.90
7366;DHT22;3723;52.220;8.792;2024-01-10T04:21:16;-8.50;99.90
7366;DHT22;3723;52.220;8.792;2024-01-10T04:23:43;-8.60;99.90
7366;DHT22;3723;52.220;8.792;2024-01-10T04:26:11;-8.70;99.90
7366;DHT22;3723;52.220;8.792;2024-01-10T04:28:38;-8.80;99.90
7366;DHT22;3723;52.220;8.792;2024-01-10T04:31:06;-8.90;99.90
7366;DHT22;3723;52.220;8.792;2024-01-10T04:33:33;-8.90;99.90
7366;DHT22;3723;52.220;8.792;2024-01-10T04:36:00;-9.00;99.90
7366;DHT22;3723;52.220;8.792;2024-01-10T04:38:27;-8.90;99.90
7366;DHT22;3723;52.220;8.792;2024-01-10T04:40:54;-8.80;99.90
7366;DHT22;3723;52.220;8.792;2024-01-10T04:43:22;-8.80;99.90
7366;DHT22;3723;52.220;8.792;2024-01-10T04:45:49;-8.70;99.90
7366;DHT22;3723;52.220;8.792;2024-01-10T04:48:17;-8.80;99.90
7366;DHT22;3723;52.220;8.792;2024-01-10T04:50:44;-8.80;99.90
7366;DHT22;3723;52.220;8.792;2024-01-10T04:53:11;-8.80;99.90
7366;DHT22;3723;52.220;8.792;2024-01-10T04:55:37;-8.80;99.90
7366;DHT22;3723;52.220;8.792;2024-01-10T04:58:04;-8.80;99.90
7366;DHT22;3723;52.220;8.792;2024-01-10T05:00:32;-8.90;99.90
7366;DHT22;3723;52.220;8.792;2024-01-10T05:02:59;-9.10;99.90
7366;DHT22;3723;52.220;8.792;2024-01-10T05:05:26;-9.20;99.90
7366;DHT22;3723;52.220;8.792;2024-01-10T05:07:53;-9.30;99.90
7366;DHT22;3723;52.220;8.792;2024-01-10T05:10:20;-9.30;99.90
7366;DHT22;3723;52.220;8.792;2024-01-10T05:12:47;-9.20;99.90
7366;DHT22;3723;52.220;8.792;2024-01-10T05:15:14;-9.20;99.90
7366;DHT22;3723;52.220;8.792;2024-01-10T05:17:42;-9.10;99.90
7366;DHT22;3723;52.220;8.792;2024-01-10T05:20:09;-9.10;99.90
7366;DHT22;3723;52.220;8.792;2024-01-10T05:22:36;-9.10;99.90
7366;DHT22;3723;52.220;8.792;2024-01-10T05:25:04;-9.10;99.90
7366;DHT22;3723;52.220;8.792;2024-01-10T05:27:31;-9.10;99.90
7366;DHT22;3723;52.220;8.792;2024-01-10T05:29:58;-9.10;99.90
7366;DHT22;3723;52.220;8.792;2024-01-10T05:32:26;-9.00;99.90
7366;DHT22;3723;52.220;8.792;2024-01-10T05:34:54;-8.90;99.90
7366;DHT22;3723;52.220;8.792;2024-01-10T05:37:21;-8.80;99.90
7366;DHT22;3723;52.220;8.792;2024-01-10T05:39:48;-8.80;99.90
7366;DHT22;3723;52.220;8.792;2024-01-10T05:42:14;-8.80;99.90
7366;DHT22;3723;52.220;8.792;2024-01-10T05:44:41;-8.80;99.90
7366;DHT22;3723;52.220;8.792;2024-01-10T05:47:08;-8.80;99.90
7366;DHT22;3723;52.220;8.792;2024-01-10T05:49:35;-8.80;99.90
7366;DHT22;3723;52.220;8.792;2024-01-10T05:52:03;-8.70;99.90
7366;DHT22;3723;52.220;8.792;2024-01-10T05:54:30;-8.70;99.90
7366;DHT22;3723;52.220;8.792;2024-01-10T05:56:57;-8.70;99.90
7366;DHT22;3723;52.220;8.792;2024-01-10T05:59:26;-8.80;99.90
7366;DHT22;3723;52.220;8.792;2024-01-10T06:01:53;-8.90;99.90
7366;DHT22;3723;52.220;8.792;2024-01-10T06:04:20;-9.00;99.90
7366;DHT22;3723;52.220;8.792;2024-01-10T06:06:46;-9.20;99.90
7366;DHT22;3723;52.220;8.792;2024-01-10T06:09:15;-9.40;99.90
7366;DHT22;3723;52.220;8.792;2024-01-10T06:11:47;-9.60;99.90
7366;DHT22;3723;52.220;8.792;2024-01-10T06:14:14;-9.80;99.90
7366;DHT22;3723;52.220;8.792;2024-01-10T06:16:41;-10.00;99.90
7366;DHT22;3723;52.220;8.792;2024-01-10T06:19:09;-10.20;99.90
7366;DHT22;3723;52.220;8.792;2024-01-10T06:21:36;-10.30;99.90
7366;DHT22;3723;52.220;8.792;2024-01-10T06:24:04;-10.40;99.90
7366;DHT22;3723;52.220;8.792;2024-01-10T06:26:32;-10.50;99.90
7366;DHT22;3723;52.220;8.792;2024-01-10T06:29:00;-10.50;99.90
7366;DHT22;3723;52.220;8.792;2024-01-10T06:31:27;-10.40;99.90
7366;DHT22;3723;52.220;8.792;2024-01-10T06:33:54;-10.20;99.90
7366;DHT22;3723;52.220;8.792;2024-01-10T06:36:21;-10.00;99.90
7366;DHT22;3723;52.220;8.792;2024-01-10T06:38:48;-10.00;99.90
7366;DHT22;3723;52.220;8.792;2024-01-10T06:41:15;-9.90;99.90
7366;DHT22;3723;52.220;8.792;2024-01-10T06:43:46;-9.80;99.90
7366;DHT22;3723;52.220;8.792;2024-01-10T06:46:21;-9.70;99.90
7366;DHT22;3723;52.220;8.792;2024-01-10T06:48:48;-9.60;99.90
7366;DHT22;3723;52.220;8.792;2024-01-10T06:51:15;-9.60;99.90
7366;DHT22;3723;52.220;8.792;2024-01-10T06:53:42;-9.60;99.90
7366;DHT22;3723;52.220;8.792;2024-01-10T06:56:10;-9.60;99.90
7366;DHT22;3723;52.220;8.792;2024-01-10T06:58:37;-9.50;99.90
7366;DHT22;3723;52.220;8.792;2024-01-10T07:01:11;-9.40;99.90
7366;DHT22;3723;52.220;8.792;2024-01-10T07:03:39;-9.30;99.90
7366;DHT22;3723;52.220;8.792;2024-01-10T07:06:06;-9.20;99.90
7366;DHT22;3723;52.220;8.792;2024-01-10T07:08:33;-9.00;99.90
7366;DHT22;3723;52.220;8.792;2024-01-10T07:11:00;-9.00;99.90
7366;DHT22;3723;52.220;8.792;2024-01-10T07:13:26;-8.90;99.90
7366;DHT22;3723;52.220;8.792;2024-01-10T07:15:53;-8.90;99.90
7366;DHT22;3723;52.220;8.792;2024-01-10T07:18:22;-9.00;99.90
7366;DHT22;3723;52.220;8.792;2024-01-10T07:20:49;-9.00;99.90
7366;DHT22;3723;52.220;8.792;2024-01-10T07:23:15;-9.10;99.90
7366;DHT22;3723;52.220;8.792;2024-01-10T07:25:42;-9.10;99.90
7366;DHT22;3723;52.220;8.792;2024-01-10T07:28:09;-9.20;99.90
7366;DHT22;3723;52.220;8.792;2024-01-10T07:30:36;-9.30;99.90
7366;DHT22;3723;52.220;8.792;2024-01-10T07:33:03;-9.30;99.90
7366;DHT22;3723;52.220;8.792;2024-01-10T07:35:31;-9.40;99.90
7366;DHT22;3723;52.220;8.792;2024-01-10T07:37:58;-9.30;99.90
7366;DHT22;3723;52.220;8.792;2024-01-10T07:40:25;-9.20;99.90
7366;DHT22;3723;52.220;8.792;2024-01-10T07:42:52;-9.10;99.90
7366;DHT22;3723;52.220;8.792;2024-01-10T07:45:19;-9.00;99.90
7366;DHT22;3723;52.220;8.792;2024-01-10T07:47:46;-8.80;99.90
7366;DHT22;3723;52.220;8.792;2024-01-10T07:50:14;-8.70;99.90
7366;DHT22;3723;52.220;8.792;2024-01-10T07:52:43;-8.60;99.90
7366;DHT22;3723;52.220;8.792;2024-01-10T07:55:12;-8.50;99.90
7366;DHT22;3723;52.220;8.792;2024-01-10T07:57:39;-8.50;99.90
7366;DHT22;3723;52.220;8.792;2024-01-10T08:00:08;-8.50;99.90
7366;DHT22;3723;52.220;8.792;2024-01-10T08:02:36;-8.50;99.90
7366;DHT22;3723;52.220;8.792;2024-01-10T08:05:03;-8.40;99.90
7366;DHT22;3723;52.220;8.792;2024-01-10T08:07:34;-8.30;99.90
7366;DHT22;3723;52.220;8.792;2024-01-10T08:10:04;-8.20;99.90
7366;DHT22;3723;52.220;8.792;2024-01-10T08:12:41;-7.90;99.90
7366;DHT22;3723;52.220;8.792;2024-01-10T08:15:10;-7.50;99.90
7366;DHT22;3723;52.220;8.792;2024-01-10T08:17:37;-7.20;99.90
7366;DHT22;3723;52.220;8.792;2024-01-10T08:20:05;-7.00;99.90
7366;DHT22;3723;52.220;8.792;2024-01-10T08:22:32;-6.90;99.90
7366;DHT22;3723;52.220;8.792;2024-01-10T08:25:00;-6.90;99.90
7366;DHT22;3723;52.220;8.792;2024-01-10T08:27:28;-7.10;99.90
7366;DHT22;3723;52.220;8.792;2024-01-10T08:29:55;-7.30;99.90
7366;DHT22;3723;52.220;8.792;2024-01-10T08:32:21;-7.30;99.90
7366;DHT22;3723;52.220;8.792;2024-01-10T08:34:48;-7.40;99.90
7366;DHT22;3723;52.220;8.792;2024-01-10T08:37:15;-7.40;99.90
7366;DHT22;3723;52.220;8.792;2024-01-10T08:39:42;-7.40;99.90
7366;DHT22;3723;52.220;8.792;2024-01-10T08:42:10;-7.20;99.90
7366;DHT22;3723;52.220;8.792;2024-01-10T08:44:39;-7.00;99.90
7366;DHT22;3723;52.220;8.792;2024-01-10T08:47:06;-6.60;99.90
7366;DHT22;3723;52.220;8.792;2024-01-10T08:49:33;-6.10;99.90
7366;DHT22;3723;52.220;8.792;2024-01-10T08:52:00;-5.60;99.90
7366;DHT22;3723;52.220;8.792;2024-01-10T08:54:26;-5.10;99.90
7366;DHT22;3723;52.220;8.792;2024-01-10T08:56:53;-4.80;99.90
7366;DHT22;3723;52.220;8.792;2024-01-10T08:59:21;-4.50;99.90
7366;DHT22;3723;52.220;8.792;2024-01-10T09:01:49;-4.20;99.90
7366;DHT22;3723;52.220;8.792;2024-01-10T09:04:17;-4.00;99.90
7366;DHT22;3723;52.220;8.792;2024-01-10T09:06:45;-4.10;99.90
7366;DHT22;3723;52.220;8.792;2024-01-10T09:09:13;-4.00;99.90
7366;DHT22;3723;52.220;8.792;2024-01-10T09:11:39;-3.90;99.90
7366;DHT22;3723;52.220;8.792;2024-01-10T09:14:06;-3.80;99.90
7366;DHT22;3723;52.220;8.792;2024-01-10T09:16:34;-3.60;99.90
7366;DHT22;3723;52.220;8.792;2024-01-10T09:19:02;-3.40;99.90
7366;DHT22;3723;52.220;8.792;2024-01-10T09:21:29;-3.10;99.90
7366;DHT22;3723;52.220;8.792;2024-01-10T09:23:56;-3.00;99.90
7366;DHT22;3723;52.220;8.792;2024-01-10T09:26:23;-2.90;99.90
7366;DHT22;3723;52.220;8.792;2024-01-10T09:28:50;-2.60;99.90
7366;DHT22;3723;52.220;8.792;2024-01-10T09:31:17;-2.50;99.90
7366;DHT22;3723;52.220;8.792;2024-01-10T09:33:44;-2.50;99.90
7366;DHT22;3723;52.220;8.792;2024-01-10T09:36:12;-2.30;99.90
7366;DHT22;3723;52.220;8.792;2024-01-10T09:38:40;-2.40;99.90
7366;DHT22;3723;52.220;8.792;2024-01-10T09:41:07;-2.30;99.90
7366;DHT22;3723;52.220;8.792;2024-01-10T09:43:34;-2.20;99.90
7366;DHT22;3723;52.220;8.792;2024-01-10T09:46:02;-2.20;99.90
7366;DHT22;3723;52.220;8.792;2024-01-10T09:48:30;-2.10;99.90
7366;DHT22;3723;52.220;8.792;2024-01-10T09:50:58;-2.00;99.90
7366;DHT22;3723;52.220;8.792;2024-01-10T09:53:27;-1.90;99.90
7366;DHT22;3723;52.220;8.792;2024-01-10T09:55:57;-1.80;99.90
7366;DHT22;3723;52.220;8.792;2024-01-10T09:58:25;-1.80;99.90
7366;DHT22;3723;52.220;8.792;2024-01-10T10:00:52;-1.60;99.90
7366;DHT22;3723;52.220;8.792;2024-01-10T10:03:20;-1.50;99.90
7366;DHT22;3723;52.220;8.792;2024-01-10T10:05:48;-1.20;99.90
7366;DHT22;3723;52.220;8.792;2024-01-10T10:08:15;-1.00;99.90
7366;DHT22;3723;52.220;8.792;2024-01-10T10:10:49;-1.00;99.90
7366;DHT22;3723;52.220;8.792;2024-01-10T10:13:26;-0.90;99.90
7366;DHT22;3723;52.220;8.792;2024-01-10T10:16:00;-0.60;99.90
7366;DHT22;3723;52.220;8.792;2024-01-10T10:18:27;-0.80;99.90
7366;DHT22;3723;52.220;8.792;2024-01-10T10:21:08;-0.90;99.90
7366;DHT22;3723;52.220;8.792;2024-01-10T10:23:36;-0.70;99.90
7366;DHT22;3723;52.220;8.792;2024-01-10T10:26:12;-0.80;99.90
7366;DHT22;3723;52.220;8.792;2024-01-10T10:28:45;-0.70;99.90
7366;DHT22;3723;52.220;8.792;2024-01-10T10:31:12;-0.60;99.90
7366;DHT22;3723;52.220;8.792;2024-01-10T10:33:39;-0.60;99.90
7366;DHT22;3723;52.220;8.792;2024-01-10T10:36:06;-0.40;99.90
7366;DHT22;3723;52.220;8.792;2024-01-10T10:38:33;-0.30;99.90
7366;DHT22;3723;52.220;8.792;2024-01-10T10:41:00;-0.20;99.90
7366;DHT22;3723;52.220;8.792;2024-01-10T10:43:30;-0.40;99.90
7366;DHT22;3723;52.220;8.792;2024-01-10T10:45:59;-0.30;99.90
7366;DHT22;3723;52.220;8.792;2024-01-10T10:48:31;-0.10;99.90
7366;DHT22;3723;52.220;8.792;2024-01-10T10:51:05;0.00;99.90
7366;DHT22;3723;52.220;8.792;2024-01-10T10:53:33;0.40;99.90
7366;DHT22;3723;52.220;8.792;2024-01-10T10:56:02;0.80;99.90
7366;DHT22;3723;52.220;8.792;2024-01-10T10:58:33;0.90;99.90
7366;DHT22;3723;52.220;8.792;2024-01-10T11:01:02;0.90;99.90
7366;DHT22;3723;52.220;8.792;2024-01-10T11:03:31;1.00;99.90
7366;DHT22;3723;52.220;8.792;2024-01-10T11:06:02;1.00;99.90
7366;DHT22;3723;52.220;8.792;2024-01-10T11:08:32;1.10;99.90
7366;DHT22;3723;52.220;8.792;2024-01-10T11:11:02;1.00;99.90
7366;DHT22;3723;52.220;8.792;2024-01-10T11:13:44;1.30;99.90
7366;DHT22;3723;52.220;8.792;2024-01-10T11:16:38;1.50;99.90
7366;DHT22;3723;52.220;8.792;2024-01-10T11:19:25;1.80;99.90
7366;DHT22;3723;52.220;8.792;2024-01-10T11:22:04;1.80;99.90
7366;DHT22;3723;52.220;8.792;2024-01-10T11:24:34;1.90;99.90
7366;DHT22;3723;52.220;8.792;2024-01-10T11:27:10;2.10;99.90
7366;DHT22;3723;52.220;8.792;2024-01-10T11:29:40;1.70;99.90
7366;DHT22;3723;52.220;8.792;2024-01-10T11:32:13;1.70;99.90
7366;DHT22;3723;52.220;8.792;2024-01-10T11:34:50;1.70;99.90
7366;DHT22;3723;52.220;8.792;2024-01-10T11:37:17;1.50;99.90
7366;DHT22;3723;52.220;8.792;2024-01-10T11:39:44;1.30;99.90
7366;DHT22;3723;52.220;8.792;2024-01-10T11:42:11;1.40;99.90
7366;DHT22;3723;52.220;8.792;2024-01-10T11:44:51;1.50;99.90
7366;DHT22;3723;52.220;8.792;2024-01-10T11:47:19;1.10;99.90
7366;DHT22;3723;52.220;8.792;2024-01-10T11:49:58;1.10;99.90
7366;DHT22;3723;52.220;8.792;2024-01-10T11:52:32;1.40;99.90
7366;DHT22;3723;52.220;8.792;2024-01-10T11:54:59;1.70;99.90
7366;DHT22;3723;52.220;8.792;2024-01-10T11:57:29;1.90;99.90
7366;DHT22;3723;52.220;8.792;2024-01-10T11:59:59;1.80;99.90
7366;DHT22;3723;52.220;8.792;2024-01-10T12:02:27;1.70;99.90
7366;DHT22;3723;52.220;8.792;2024-01-10T12:04:54;2.00;99.90
7366;DHT22;3723;52.220;8.792;2024-01-10T12:07:21;2.20;99.90
7366;DHT22;3723;52.220;8.792;2024-01-10T12:09:49;2.30;99.90
7366;DHT22;3723;52.220;8.792;2024-01-10T12:12:16;2.70;99.90
7366;DHT22;3723;52.220;8.792;2024-01-10T12:14:43;2.60;99.90
7366;DHT22;3723;52.220;8.792;2024-01-10T12:17:12;2.90;99.90
7366;DHT22;3723;52.220;8.792;2024-01-10T12:19:39;3.10;99.90
7366;DHT22;3723;52.220;8.792;2024-01-10T12:22:10;3.50;99.90
7366;DHT22;3723;52.220;8.792;2024-01-10T12:24:43;3.50;99.90
7366;DHT22;3723;52.220;8.792;2024-01-10T12:27:11;3.60;99.90
7366;DHT22;3723;52.220;8.792;2024-01-10T12:29:38;3.40;99.90
7366;DHT22;3723;52.220;8.792;2024-01-10T12:32:07;2.70;99.90
7366;DHT22;3723;52.220;8.792;2024-01-10T12:34:38;2.50;99.90
7366;DHT22;3723;52.220;8.792;2024-01-10T12:37:05;2.80;99.90
7366;DHT22;3723;52.220;8.792;2024-01-10T12:39:32;3.20;99.90
7366;DHT22;3723;52.220;8.792;2024-01-10T12:42:00;3.30;99.90
7366;DHT22;3723;52.220;8.792;2024-01-10T12:44:28;3.30;99.90
7366;DHT22;3723;52.220;8.792;2024-01-10T12:46:55;3.00;99.90
7366;DHT22;3723;52.220;8.792;2024-01-10T12:49:23;2.80;99.90
7366;DHT22;3723;52.220;8.792;2024-01-10T12:51:51;2.90;99.90
7366;DHT22;3723;52.220;8.792;2024-01-10T12:54:18;2.80;99.90
7366;DHT22;3723;52.220;8.792;2024-01-10T12:56:45;3.00;99.90
7366;DHT22;3723;52.220;8.792;2024-01-10T12:59:12;2.70;99.90
7366;DHT22;3723;52.220;8.792;2024-01-10T13:01:41;2.80;99.90
7366;DHT22;3723;52.220;8.792;2024-01-10T13:04:08;2.30;99.90
7366;DHT22;3723;52.220;8.792;2024-01-10T13:06:37;1.90;99.90
7366;DHT22;3723;52.220;8.792;2024-01-10T13:09:05;2.00;99.90
7366;DHT22;3723;52.220;8.792;2024-01-10T13:11:33;2.50;99.90
7366;DHT22;3723;52.220;8.792;2024-01-10T13:14:00;3.00;99.90
7366;DHT22;3723;52.220;8.792;2024-01-10T13:16:27;3.10;99.90
7366;DHT22;3723;52.220;8.792;2024-01-10T13:18:53;3.20;99.90
7366;DHT22;3723;52.220;8.792;2024-01-10T13:21:22;3.20;99.90
7366;DHT22;3723;52.220;8.792;2024-01-10T13:23:50;3.10;99.90
7366;DHT22;3723;52.220;8.792;2024-01-10T13:26:18;2.90;99.90
7366;DHT22;3723;52.220;8.792;2024-01-10T13:28:45;2.60;99.90
7366;DHT22;3723;52.220;8.792;2024-01-10T13:31:13;2.50;99.90
7366;DHT22;3723;52.220;8.792;2024-01-10T13:33:41;2.60;99.90
7366;DHT22;3723;52.220;8.792;2024-01-10T13:36:08;2.40;99.90
7366;DHT22;3723;52.220;8.792;2024-01-10T13:38:34;1.90;99.90
7366;DHT22;3723;52.220;8.792;2024-01-10T13:41:02;1.60;99.90
7366;DHT22;3723;52.220;8.792;2024-01-10T13:43:32;1.30;99.90
7366;DHT22;3723;52.220;8.792;2024-01-10T13:45:59;0.80;99.90
7366;DHT22;3723;52.220;8.792;2024-01-10T13:48:27;0.60;99.90
7366;DHT22;3723;52.220;8.792;2024-01-10T13:50:54;0.80;99.90
7366;DHT22;3723;52.220;8.792;2024-01-10T13:53:20;1.00;99.90
7366;DHT22;3723;52.220;8.792;2024-01-10T13:55:47;1.50;99.90
7366;DHT22;3723;52.220;8.792;2024-01-10T13:58:15;1.60;99.90
7366;DHT22;3723;52.220;8.792;2024-01-10T14:00:45;1.90;99.90
7366;DHT22;3723;52.220;8.792;2024-01-10T14:03:12;2.10;99.90
7366;DHT22;3723;52.220;8.792;2024-01-10T14:05:40;2.30;99.90
7366;DHT22;3723;52.220;8.792;2024-01-10T14:08:07;2.60;99.90
7366;DHT22;3723;52.220;8.792;2024-01-10T14:10:35;2.90;99.90
7366;DHT22;3723;52.220;8.792;2024-01-10T14:13:02;2.80;99.90
7366;DHT22;3723;52.220;8.792;2024-01-10T14:15:29;2.80;99.90
7366;DHT22;3723;52.220;8.792;2024-01-10T14:17:57;2.70;99.90
7366;DHT22;3723;52.220;8.792;2024-01-10T14:20:24;2.60;99.90
7366;DHT22;3723;52.220;8.792;2024-01-10T14:22:50;1.90;99.90
7366;DHT22;3723;52.220;8.792;2024-01-10T14:25:18;1.20;99.90
7366;DHT22;3723;52.220;8.792;2024-01-10T14:27:46;0.60;99.90
7366;DHT22;3723;52.220;8.792;2024-01-10T14:30:13;-0.30;99.90
7366;DHT22;3723;52.220;8.792;2024-01-10T14:32:41;-0.90;99.90
7366;DHT22;3723;52.220;8.792;2024-01-10T14:35:09;-1.30;99.90
7366;DHT22;3723;52.220;8.792;2024-01-10T14:37:36;-1.70;99.90
7366;DHT22;3723;52.220;8.792;2024-01-10T14:40:04;-2.10;99.90
7366;DHT22;3723;52.220;8.792;2024-01-10T14:42:32;-2.20;99.90
7366;DHT22;3723;52.220;8.792;2024-01-10T14:44:59;-2.40;99.90
7366;DHT22;3723;52.220;8.792;2024-01-10T14:47:26;-2.40;99.90
7366;DHT22;3723;52.220;8.792;2024-01-10T14:49:53;-2.40;99.90
7366;DHT22;3723;52.220;8.792;2024-01-10T14:52:22;-2.40;99.90
7366;DHT22;3723;52.220;8.792;2024-01-10T14:54:49;-2.40;99.90
7366;DHT22;3723;52.220;8.792;2024-01-10T14:57:16;-2.50;99.90
7366;DHT22;3723;52.220;8.792;2024-01-10T14:59:43;-2.50;99.90
7366;DHT22;3723;52.220;8.792;2024-01-10T15:02:10;-2.60;99.90
7366;DHT22;3723;52.220;8.792;2024-01-10T15:04:37;-2.70;99.90
7366;DHT22;3723;52.220;8.792;2024-01-10T15:07:05;-2.90;99.90
7366;DHT22;3723;52.220;8.792;2024-01-10T15:09:33;-3.10;99.90
7366;DHT22;3723;52.220;8.792;2024-01-10T15:12:03;-3.40;99.90
7366;DHT22;3723;52.220;8.792;2024-01-10T15:14:31;-3.60;99.90
7366;DHT22;3723;52.220;8.792;2024-01-10T15:16:58;-3.80;99.90
7366;DHT22;3723;52.220;8.792;2024-01-10T15:19:26;-3.90;99.90
7366;DHT22;3723;52.220;8.792;2024-01-10T15:21:53;-4.00;99.90
7366;DHT22;3723;52.220;8.792;2024-01-10T15:24:20;-4.10;99.90
7366;DHT22;3723;52.220;8.792;2024-01-10T15:26:48;-4.30;99.90
7366;DHT22;3723;52.220;8.792;2024-01-10T15:29:16;-4.30;99.90
7366;DHT22;3723;52.220;8.792;2024-01-10T15:31:43;-4.40;99.90
7366;DHT22;3723;52.220;8.792;2024-01-10T15:34:12;-4.50;99.90
7366;DHT22;3723;52.220;8.792;2024-01-10T15:36:40;-4.70;99.90
7366;DHT22;3723;52.220;8.792;2024-01-10T15:39:07;-4.70;99.90
7366;DHT22;3723;52.220;8.792;2024-01-10T15:41:34;-4.80;99.90
7366;DHT22;3723;52.220;8.792;2024-01-10T15:44:02;-4.90;99.90
7366;DHT22;3723;52.220;8.792;2024-01-10T15:46:29;-5.00;99.90
7366;DHT22;3723;52.220;8.792;2024-01-10T15:48:56;-5.10;99.90
7366;DHT22;3723;52.220;8.792;2024-01-10T15:51:23;-5.10;99.90
7366;DHT22;3723;52.220;8.792;2024-01-10T15:53:50;-5.10;99.90
7366;DHT22;3723;52.220;8.792;2024-01-10T15:56:22;-5.20;99.90
7366;DHT22;3723;52.220;8.792;2024-01-10T15:58:49;-5.20;99.90
7366;DHT22;3723;52.220;8.792;2024-01-10T16:01:18;-5.20;99.90
7366;DHT22;3723;52.220;8.792;2024-01-10T16:03:45;-5.20;99.90
7366;DHT22;3723;52.220;8.792;2024-01-10T16:06:11;-5.20;99.90
7366;DHT22;3723;52.220;8.792;2024-01-10T16:08:38;-5.30;99.90